createdAt,value
2018-02-07T00:00:06.040Z,21.90
2018-02-07T00:01:05.957Z,21.90
2018-02-07T00:02:05.882Z,22.20
2018-02-07T00:03:05.788Z,21.30
2018-02-07T00:04:05.756Z,21.70
2018-02-07T00:05:05.628Z,21.60
2018-02-07T00:06:05.544Z,21.50
2018-02-07T00:07:05.444Z,21.90
2018-02-07T00:08:05.381Z,21.60
2018-02-07T00:09:05.288Z,21.00
2018-02-07T00:10:05.263Z,22.10
2018-02-07T00:11:05.143Z,21.30
2018-02-07T00:12:05.056Z,22.00
2018-02-07T00:13:04.973Z,22.20
2018-02-07T00:14:04.880Z,22.60
2018-02-07T00:15:04.805Z,22.00
2018-02-07T00:16:04.705Z,21.70
2018-02-07T00:17:04.623Z,21.30
2018-02-07T00:18:04.609Z,21.50
2018-02-07T00:19:04.446Z,21.70
2018-02-07T00:20:04.401Z,20.90
2018-02-07T00:21:04.294Z,21.60
2018-02-07T00:22:04.207Z,22.00
2018-02-07T00:23:04.111Z,22.00
2018-02-07T00:24:04.044Z,21.80
2018-02-07T00:25:03.970Z,21.60
2018-02-07T00:26:03.903Z,22.30
2018-02-07T00:27:03.772Z,22.50
2018-02-07T00:28:03.705Z,22.00
2018-02-07T00:29:03.621Z,21.70
2018-02-07T00:30:03.546Z,22.00
2018-02-07T00:31:03.468Z,23.40
2018-02-07T00:32:03.404Z,22.30
2018-02-07T00:33:03.277Z,21.60
2018-02-07T00:34:03.219Z,22.50
2018-02-07T00:35:03.107Z,22.50
2018-02-07T00:36:03.063Z,21.60
2018-02-07T00:37:02.962Z,22.20
2018-02-07T00:38:02.875Z,22.20
2018-02-07T00:39:02.770Z,21.90
2018-02-07T00:40:02.702Z,22.10
2018-02-07T00:41:02.616Z,21.30
2018-02-07T00:42:02.569Z,22.10
2018-02-07T00:43:02.436Z,21.80
2018-02-07T00:44:02.366Z,21.60
2018-02-07T00:45:02.269Z,21.70
2018-02-07T00:46:02.203Z,22.90
2018-02-07T00:47:02.110Z,21.30
2018-02-07T00:48:02.101Z,21.80
2018-02-07T00:49:01.934Z,21.50
2018-02-07T00:50:01.871Z,22.00
2018-02-07T00:51:01.773Z,21.90
2018-02-07T00:52:01.731Z,21.50
2018-02-07T00:53:01.602Z,22.30
2018-02-07T00:54:01.531Z,21.60
2018-02-07T00:55:01.443Z,22.30
2018-02-07T00:56:01.372Z,21.80
2018-02-07T00:57:01.286Z,21.80
2018-02-07T00:58:01.212Z,21.40
2018-02-07T00:59:01.122Z,21.50
2018-02-07T01:00:01.032Z,21.70
2018-02-07T01:01:00.945Z,22.10
2018-02-07T01:02:00.871Z,22.20
2018-02-07T01:03:00.783Z,22.30
2018-02-07T01:04:00.712Z,22.40
2018-02-07T01:05:00.612Z,23.60
2018-02-07T01:06:00.538Z,21.80
2018-02-07T01:07:00.429Z,21.70
2018-02-07T01:08:00.360Z,21.80
2018-02-07T01:09:00.274Z,22.00
2018-02-07T01:10:00.214Z,21.90
2018-02-07T01:11:00.101Z,21.40
2018-02-07T01:12:00.026Z,22.30
2018-02-07T01:12:59.954Z,22.30
2018-02-07T01:13:59.867Z,21.90
2018-02-07T01:14:59.780Z,22.10
2018-02-07T01:15:59.683Z,22.20
2018-02-07T01:16:59.624Z,22.50
2018-02-07T01:17:59.507Z,22.80
2018-02-07T01:18:59.477Z,22.30
2018-02-07T01:19:59.418Z,22.00
2018-02-07T01:20:59.271Z,22.00
2018-02-07T01:21:59.191Z,22.90
2018-02-07T01:22:59.105Z,22.20
2018-02-07T01:23:59.033Z,22.20
2018-02-07T01:24:58.932Z,22.30
2018-02-07T01:25:58.850Z,21.50
2018-02-07T01:26:58.892Z,22.80
2018-02-07T01:27:58.677Z,22.60
2018-02-07T01:28:58.606Z,22.70
2018-02-07T01:29:58.593Z,21.90
2018-02-07T01:30:58.434Z,23.00
2018-02-07T01:31:58.333Z,23.30
2018-02-07T01:32:58.282Z,23.10
2018-02-07T01:33:58.171Z,23.10
2018-02-07T01:34:58.108Z,22.30
2018-02-07T01:35:57.999Z,23.00
2018-02-07T01:36:57.933Z,22.60
2018-02-07T01:37:57.837Z,23.40
2018-02-07T01:38:57.791Z,23.40
2018-02-07T01:39:57.680Z,22.80
2018-02-07T01:40:57.601Z,23.50
2018-02-07T01:41:57.512Z,22.90
2018-02-07T01:42:57.432Z,23.50
2018-02-07T01:43:57.336Z,22.20
2018-02-07T01:44:57.300Z,23.60
2018-02-07T01:45:57.165Z,23.30
2018-02-07T01:46:57.103Z,24.00
2018-02-07T01:47:57.019Z,22.90
2018-02-07T01:48:56.921Z,23.10
2018-02-07T01:49:56.832Z,23.50
2018-02-07T01:50:56.797Z,23.70
2018-02-07T01:51:56.678Z,22.80
2018-02-07T01:52:56.627Z,23.40
2018-02-07T01:53:56.499Z,23.60
2018-02-07T01:54:56.416Z,23.40
2018-02-07T01:55:56.328Z,24.10
2018-02-07T01:56:56.261Z,22.80
2018-02-07T01:57:56.181Z,23.70
2018-02-07T01:58:56.098Z,23.70
2018-02-07T01:59:55.993Z,22.80
2018-02-07T02:00:55.929Z,24.80
2018-02-07T02:01:55.829Z,23.40
2018-02-07T02:02:55.753Z,22.40
2018-02-07T02:03:55.728Z,24.10
2018-02-07T02:04:55.622Z,23.60
2018-02-07T02:05:55.488Z,24.00
2018-02-07T02:06:55.404Z,25.00
2018-02-07T02:07:55.335Z,23.70
2018-02-07T02:08:55.277Z,23.20
2018-02-07T02:09:55.160Z,23.50
2018-02-07T02:10:55.094Z,24.40
2018-02-07T02:11:55.014Z,24.40
2018-02-07T02:12:54.930Z,22.70
2018-02-07T02:13:54.874Z,23.10
2018-02-07T02:14:54.742Z,24.30
2018-02-07T02:15:54.654Z,24.90
2018-02-07T02:16:54.588Z,23.90
2018-02-07T02:17:54.486Z,24.30
2018-02-07T02:18:54.445Z,24.30
2018-02-07T02:19:54.377Z,23.60
2018-02-07T02:20:54.251Z,24.60
2018-02-07T02:21:54.155Z,24.40
2018-02-07T02:22:54.070Z,24.60
2018-02-07T02:23:53.981Z,23.70
2018-02-07T02:24:53.922Z,24.20
2018-02-07T02:25:53.835Z,25.10
2018-02-07T02:26:53.740Z,25.20
2018-02-07T02:27:53.657Z,24.70
2018-02-07T02:28:53.599Z,25.90
2018-02-07T02:29:53.487Z,24.10
2018-02-07T02:30:53.432Z,25.30
2018-02-07T02:31:53.314Z,25.10
2018-02-07T02:32:53.241Z,24.70
2018-02-07T02:33:53.146Z,24.40
2018-02-07T02:34:53.079Z,24.60
2018-02-07T02:35:52.996Z,25.10
2018-02-07T02:36:52.900Z,23.70
2018-02-07T02:37:52.807Z,24.10
2018-02-07T02:38:52.735Z,24.60
2018-02-07T02:39:52.675Z,24.50
2018-02-07T02:40:52.571Z,24.60
2018-02-07T02:41:52.511Z,25.10
2018-02-07T02:42:52.396Z,24.50
2018-02-07T02:43:52.308Z,24.50
2018-02-07T02:44:52.246Z,24.90
2018-02-07T02:45:52.138Z,24.90
2018-02-07T02:46:52.100Z,25.40
2018-02-07T02:47:51.974Z,24.90
2018-02-07T02:48:51.909Z,25.30
2018-02-07T02:49:51.805Z,25.50
2018-02-07T02:50:51.819Z,25.40
2018-02-07T02:51:51.639Z,24.90
2018-02-07T02:52:51.576Z,25.50
2018-02-07T02:53:51.470Z,25.80
2018-02-07T02:54:51.408Z,24.50
2018-02-07T02:55:51.298Z,24.60
2018-02-07T02:56:51.242Z,24.80
2018-02-07T02:57:51.153Z,25.60
2018-02-07T02:58:51.055Z,24.40
2018-02-07T02:59:50.962Z,25.10
2018-02-07T03:00:50.889Z,25.00
2018-02-07T03:01:50.795Z,25.90
2018-02-07T03:02:50.753Z,25.80
2018-02-07T03:03:50.633Z,24.90
2018-02-07T03:04:50.563Z,25.10
2018-02-07T03:05:50.463Z,25.60
2018-02-07T03:06:50.389Z,25.40
2018-02-07T03:07:50.324Z,26.20
2018-02-07T03:08:50.226Z,25.40
2018-02-07T03:09:50.135Z,24.30
2018-02-07T03:10:50.052Z,25.50
2018-02-07T03:11:49.953Z,24.40
2018-02-07T03:12:49.883Z,25.00
2018-02-07T03:13:49.813Z,25.20
2018-02-07T03:14:49.720Z,25.00
2018-02-07T03:15:49.619Z,24.50
2018-02-07T03:16:49.555Z,24.80
2018-02-07T03:17:49.474Z,25.50
2018-02-07T03:18:49.401Z,24.60
2018-02-07T03:19:49.287Z,24.50
2018-02-07T03:20:49.269Z,25.70
2018-02-07T03:21:49.119Z,26.20
2018-02-07T03:22:49.056Z,25.30
2018-02-07T03:23:48.995Z,25.70
2018-02-07T03:24:48.874Z,25.40
2018-02-07T03:25:48.831Z,24.40
2018-02-07T03:26:48.708Z,25.40
2018-02-07T03:27:48.625Z,25.30
2018-02-07T03:28:48.545Z,24.90
2018-02-07T03:29:48.466Z,25.20
2018-02-07T03:30:48.395Z,25.60
2018-02-07T03:31:48.283Z,25.50
2018-02-07T03:32:48.215Z,24.80
2018-02-07T03:33:48.118Z,24.90
2018-02-07T03:34:48.036Z,24.50
2018-02-07T03:35:48.254Z,24.40
2018-02-07T03:36:47.868Z,26.20
2018-02-07T03:37:47.823Z,25.30
2018-02-07T03:38:47.722Z,25.50
2018-02-07T03:39:47.627Z,25.70
2018-02-07T03:40:47.539Z,25.20
2018-02-07T03:41:47.445Z,25.30
2018-02-07T03:42:47.370Z,25.80
2018-02-07T03:43:47.277Z,24.40
2018-02-07T03:44:47.222Z,24.50
2018-02-07T03:45:47.148Z,24.80
2018-02-07T03:46:47.046Z,24.90
2018-02-07T03:47:46.936Z,25.20
2018-02-07T03:48:46.869Z,25.10
2018-02-07T03:49:46.774Z,25.00
2018-02-07T03:50:46.716Z,25.50
2018-02-07T03:51:46.608Z,24.30
2018-02-07T03:52:46.535Z,25.10
2018-02-07T03:53:46.436Z,25.50
2018-02-07T03:54:46.371Z,26.00
2018-02-07T03:55:46.286Z,24.20
2018-02-07T03:56:46.196Z,25.20
2018-02-07T03:57:46.102Z,25.20
2018-02-07T03:58:46.028Z,25.00
2018-02-07T03:59:45.928Z,26.00
2018-02-07T04:00:45.876Z,25.90
2018-02-07T04:01:45.782Z,25.30
2018-02-07T04:02:45.693Z,25.30
2018-02-07T04:03:45.593Z,24.50
2018-02-07T04:04:45.522Z,25.70
2018-02-07T04:05:45.425Z,25.90
2018-02-07T04:06:45.376Z,24.70
2018-02-07T04:07:45.308Z,25.10
2018-02-07T04:08:45.181Z,25.30
2018-02-07T04:09:45.089Z,24.60
2018-02-07T04:10:45.021Z,25.10
2018-02-07T04:11:44.954Z,24.90
2018-02-07T04:12:44.869Z,27.10
2018-02-07T04:13:44.772Z,26.20
2018-02-07T04:14:44.678Z,25.70
2018-02-07T04:15:44.594Z,26.00
2018-02-07T04:16:44.523Z,24.90
2018-02-07T04:17:44.418Z,25.50
2018-02-07T04:18:44.349Z,24.80
2018-02-07T04:19:44.261Z,25.50
2018-02-07T04:20:44.207Z,26.30
2018-02-07T04:21:44.108Z,26.10
2018-02-07T04:22:44.012Z,25.40
2018-02-07T04:23:43.948Z,26.00
2018-02-07T04:24:43.856Z,25.00
2018-02-07T04:25:43.750Z,25.70
2018-02-07T04:26:43.673Z,25.60
2018-02-07T04:27:43.579Z,26.50
2018-02-07T04:28:43.506Z,24.60
2018-02-07T04:29:43.444Z,26.30
2018-02-07T04:30:43.339Z,25.60
2018-02-07T04:31:43.242Z,26.10
2018-02-07T04:32:43.196Z,27.20
2018-02-07T04:33:43.091Z,26.10
2018-02-07T04:34:43.014Z,26.50
2018-02-07T04:35:42.912Z,25.90
2018-02-07T04:38:24.979Z,26.50
2018-02-07T04:39:24.927Z,25.30
2018-02-07T04:40:24.808Z,26.70
2018-02-07T04:41:24.737Z,25.30
2018-02-07T04:42:24.645Z,27.00
2018-02-07T04:43:24.596Z,26.40
2018-02-07T04:44:24.487Z,26.90
2018-02-07T04:45:24.468Z,26.30
2018-02-07T04:46:24.303Z,27.40
2018-02-07T04:47:24.231Z,25.80
2018-02-07T04:48:24.131Z,26.60
2018-02-07T04:49:24.096Z,26.30
2018-02-07T04:50:23.970Z,26.00
2018-02-07T04:51:23.903Z,26.80
2018-02-07T04:52:23.804Z,27.20
2018-02-07T04:53:23.724Z,26.10
2018-02-07T04:54:23.662Z,26.50
2018-02-07T04:55:23.580Z,28.00
2018-02-07T04:56:23.484Z,26.50
2018-02-07T04:57:23.394Z,26.90
2018-02-07T04:58:23.302Z,26.80
2018-02-07T04:59:23.227Z,26.10
2018-02-07T05:00:23.161Z,27.70
2018-02-07T05:01:23.098Z,26.60
2018-02-07T05:02:22.968Z,27.00
2018-02-07T05:03:22.894Z,26.20
2018-02-07T05:04:22.790Z,26.10
2018-02-07T05:05:22.743Z,27.00
2018-02-07T05:06:22.658Z,27.10
2018-02-07T05:07:22.566Z,27.00
2018-02-07T05:08:22.460Z,27.20
2018-02-07T05:09:22.389Z,27.90
2018-02-07T05:10:22.309Z,27.40
2018-02-07T05:11:22.674Z,27.70
2018-02-07T05:12:22.123Z,27.80
2018-02-07T05:13:22.062Z,27.70
2018-02-07T05:14:21.961Z,27.60
2018-02-07T05:15:21.888Z,28.40
2018-02-07T05:16:21.790Z,27.50
2018-02-07T05:17:21.725Z,28.00
2018-02-07T05:18:21.629Z,27.90
2018-02-07T05:19:21.537Z,27.70
2018-02-07T05:20:21.451Z,28.00
2018-02-07T05:21:21.379Z,28.60
2018-02-07T05:22:21.306Z,28.30
2018-02-07T05:23:21.212Z,28.10
2018-02-07T05:24:21.117Z,28.60
2018-02-07T05:25:21.053Z,28.90
2018-02-07T05:26:20.963Z,27.80
2018-02-07T05:27:20.890Z,27.70
2018-02-07T05:28:20.780Z,28.50
2018-02-07T05:29:20.714Z,29.50
2018-02-07T05:30:20.605Z,30.00
2018-02-07T05:31:20.538Z,28.60
2018-02-07T05:32:20.468Z,29.40
2018-02-07T05:33:20.397Z,154.20
2018-02-07T05:34:20.296Z,67.10
2018-02-07T05:35:20.201Z,68.80
2018-02-07T05:36:20.154Z,54.40
2018-02-07T05:37:20.034Z,67.50
2018-02-07T05:38:19.961Z,35.30
2018-02-07T05:39:19.908Z,31.50
2018-02-07T05:40:19.801Z,30.20
2018-02-07T05:41:19.692Z,29.90
2018-02-07T05:42:19.712Z,31.10
2018-02-07T05:43:19.541Z,30.40
2018-02-07T05:44:19.436Z,30.50
2018-02-07T05:45:19.359Z,29.80
2018-02-07T05:46:19.257Z,31.40
2018-02-07T05:47:19.246Z,29.90
2018-02-07T05:48:19.123Z,28.90
2018-02-07T05:49:19.074Z,29.20
2018-02-07T05:50:18.929Z,31.50
2018-02-07T05:51:18.856Z,31.20
2018-02-07T05:52:18.768Z,30.10
2018-02-07T05:53:18.681Z,31.20
2018-02-07T05:54:18.608Z,30.70
2018-02-07T05:55:18.534Z,31.90
2018-02-07T05:56:18.525Z,30.50
2018-02-07T05:59:00.482Z,31.50
2018-02-07T06:00:00.429Z,30.40
2018-02-07T06:01:00.326Z,30.80
2018-02-07T06:02:00.246Z,31.90
2018-02-07T06:03:00.149Z,31.30
2018-02-07T06:04:00.078Z,30.50
2018-02-07T06:05:00.001Z,31.30
2018-02-07T06:05:59.914Z,31.50
2018-02-07T06:06:59.809Z,32.50
2018-02-07T06:07:59.790Z,32.60
2018-02-07T06:08:59.638Z,31.90
2018-02-07T06:09:59.641Z,31.10
2018-02-07T06:10:59.471Z,31.30
2018-02-07T06:11:59.405Z,32.40
2018-02-07T06:12:59.300Z,31.40
2018-02-07T06:13:59.236Z,31.60
2018-02-07T06:14:59.151Z,30.90
2018-02-07T06:15:59.084Z,31.70
2018-02-07T06:16:58.982Z,32.80
2018-02-07T06:17:58.890Z,30.00
2018-02-07T06:18:58.796Z,30.10
2018-02-07T06:19:58.728Z,30.00
2018-02-07T06:20:58.629Z,30.90
2018-02-07T06:21:58.562Z,30.70
2018-02-07T06:22:58.486Z,31.30
2018-02-07T06:23:58.384Z,31.10
2018-02-07T06:24:58.309Z,31.90
2018-02-07T06:25:58.216Z,32.00
2018-02-07T06:26:58.146Z,32.80
2018-02-07T06:27:58.046Z,32.80
2018-02-07T06:28:57.954Z,31.90
2018-02-07T06:29:57.900Z,32.50
2018-02-07T06:30:57.877Z,31.50
2018-02-07T06:31:57.732Z,33.40
2018-02-07T06:32:57.615Z,32.90
2018-02-07T06:33:57.545Z,32.20
2018-02-07T06:34:57.447Z,32.70
2018-02-07T06:35:57.413Z,33.30
2018-02-07T06:36:57.276Z,32.60
2018-02-07T06:37:57.204Z,31.70
2018-02-07T06:38:57.101Z,33.10
2018-02-07T06:39:57.054Z,33.10
2018-02-07T06:40:56.983Z,32.90
2018-02-07T06:41:56.860Z,32.60
2018-02-07T06:42:56.798Z,32.70
2018-02-07T06:43:56.710Z,33.00
2018-02-07T06:44:56.602Z,32.60
2018-02-07T06:45:56.556Z,32.30
2018-02-07T06:46:56.444Z,33.50
2018-02-07T06:47:56.387Z,33.30
2018-02-07T06:48:56.291Z,33.20
2018-02-07T06:49:56.200Z,32.90
2018-02-07T06:50:56.097Z,31.70
2018-02-07T06:51:56.088Z,33.80
2018-02-07T06:52:55.940Z,33.20
2018-02-07T06:53:55.884Z,32.50
2018-02-07T06:54:55.752Z,33.80
2018-02-07T06:55:55.783Z,33.50
2018-02-07T06:56:55.606Z,33.10
2018-02-07T06:57:55.592Z,34.40
2018-02-07T06:58:55.421Z,33.50
2018-02-07T06:59:55.405Z,33.60
2018-02-07T07:00:55.251Z,34.40
2018-02-07T07:01:55.256Z,34.90
2018-02-07T07:02:55.099Z,34.10
2018-02-07T07:03:55.050Z,33.90
2018-02-07T07:04:54.909Z,33.80
2018-02-07T07:05:54.937Z,35.70
2018-02-07T07:06:54.745Z,35.00
2018-02-07T07:07:54.692Z,35.80
2018-02-07T07:08:54.572Z,36.40
2018-02-07T07:09:54.498Z,34.20
2018-02-07T07:10:54.415Z,35.00
2018-02-07T07:11:54.369Z,34.30
2018-02-07T07:12:54.255Z,34.00
2018-02-07T07:13:54.161Z,34.30
2018-02-07T07:14:54.069Z,32.20
2018-02-07T07:15:54.002Z,34.50
2018-02-07T07:16:53.923Z,35.10
2018-02-07T07:17:53.861Z,34.90
2018-02-07T07:18:53.759Z,34.40
2018-02-07T07:19:53.694Z,35.00
2018-02-07T07:20:53.556Z,34.70
2018-02-07T07:21:53.478Z,33.80
2018-02-07T07:22:53.403Z,35.20
2018-02-07T07:23:53.408Z,34.10
2018-02-07T07:24:53.219Z,33.20
2018-02-07T07:25:53.157Z,33.20
2018-02-07T07:26:53.065Z,35.00
2018-02-07T07:27:52.997Z,33.80
2018-02-07T07:28:52.933Z,34.20
2018-02-07T07:29:52.835Z,34.50
2018-02-07T07:30:52.719Z,34.20
2018-02-07T07:31:52.641Z,33.50
2018-02-07T07:32:52.572Z,35.00
2018-02-07T07:33:52.492Z,33.10
2018-02-07T07:34:52.381Z,34.20
2018-02-07T07:35:52.305Z,34.40
2018-02-07T07:36:52.204Z,34.40
2018-02-07T07:37:52.135Z,34.20
2018-02-07T07:38:52.055Z,35.10
2018-02-07T07:39:51.968Z,33.80
2018-02-07T07:40:51.873Z,34.00
2018-02-07T07:41:51.787Z,34.20
2018-02-07T07:42:51.708Z,34.00
2018-02-07T07:43:51.699Z,34.90
2018-02-07T07:44:51.537Z,34.10
2018-02-07T07:45:51.474Z,33.70
2018-02-07T07:46:51.376Z,33.90
2018-02-07T07:47:51.302Z,35.10
2018-02-07T07:48:51.216Z,34.20
2018-02-07T07:49:51.136Z,33.50
2018-02-07T07:50:51.098Z,34.20
2018-02-07T07:51:50.959Z,34.00
2018-02-07T07:52:50.859Z,34.30
2018-02-07T07:53:50.790Z,34.40
2018-02-07T07:54:50.711Z,34.10
2018-02-07T07:55:50.639Z,34.10
2018-02-07T07:56:50.516Z,33.60
2018-02-07T07:57:50.453Z,33.50
2018-02-07T07:58:50.365Z,34.10
2018-02-07T07:59:50.288Z,33.80
2018-02-07T08:00:50.209Z,33.40
2018-02-07T08:01:50.116Z,33.50
2018-02-07T08:02:50.022Z,32.80
2018-02-07T08:03:49.943Z,35.10
2018-02-07T08:04:49.891Z,34.10
2018-02-07T08:05:49.769Z,33.30
2018-02-07T08:06:49.686Z,34.50
2018-02-07T08:07:49.611Z,33.60
2018-02-07T08:08:49.507Z,33.80
2018-02-07T08:09:49.443Z,34.80
2018-02-07T08:10:49.388Z,33.20
2018-02-07T08:11:49.261Z,33.80
2018-02-07T08:12:49.178Z,34.30
2018-02-07T08:13:49.107Z,32.70
2018-02-07T08:14:49.002Z,34.00
2018-02-07T08:15:48.954Z,34.80
2018-02-07T08:16:48.849Z,35.40
2018-02-07T08:17:48.837Z,32.90
2018-02-07T08:18:48.667Z,34.70
2018-02-07T08:19:48.599Z,34.40
2018-02-07T08:20:48.503Z,34.50
2018-02-07T08:21:48.451Z,34.00
2018-02-07T08:22:48.339Z,34.20
2018-02-07T08:23:48.254Z,33.90
2018-02-07T08:24:48.189Z,33.50
2018-02-07T08:25:48.102Z,34.00
2018-02-07T08:26:48.011Z,33.60
2018-02-07T08:27:47.930Z,32.70
2018-02-07T08:28:47.828Z,35.10
2018-02-07T08:29:47.765Z,33.90
2018-02-07T08:30:47.674Z,33.60
2018-02-07T08:31:47.608Z,34.00
2018-02-07T08:32:47.535Z,34.20
2018-02-07T08:33:47.423Z,33.30
2018-02-07T08:34:47.347Z,33.90
2018-02-07T08:35:47.267Z,33.40
2018-02-07T08:36:47.150Z,33.70
2018-02-07T08:37:47.106Z,35.10
2018-02-07T08:38:47.003Z,33.30
2018-02-07T08:39:46.920Z,34.40
2018-02-07T08:40:46.829Z,34.20
2018-02-07T08:41:46.759Z,34.30
2018-02-07T08:42:46.676Z,32.30
2018-02-07T08:43:46.583Z,34.60
2018-02-07T08:44:46.482Z,33.70
2018-02-07T08:45:46.416Z,34.20
2018-02-07T08:46:46.329Z,34.60
2018-02-07T08:47:46.283Z,34.00
2018-02-07T08:48:46.157Z,34.50
2018-02-07T08:49:46.090Z,34.10
2018-02-07T08:50:45.990Z,34.40
2018-02-07T08:51:45.915Z,34.40
2018-02-07T08:52:45.857Z,34.30
2018-02-07T08:53:45.772Z,34.60
2018-02-07T08:54:45.653Z,35.30
2018-02-07T08:55:45.576Z,34.80
2018-02-07T08:56:45.481Z,34.70
2018-02-07T08:57:45.406Z,33.00
2018-02-07T08:58:45.326Z,34.40
2018-02-07T08:59:45.250Z,34.00
2018-02-07T09:00:45.148Z,34.70
2018-02-07T09:01:45.067Z,34.30
2018-02-07T09:02:44.980Z,34.50
2018-02-07T09:03:44.923Z,35.00
2018-02-07T09:04:44.815Z,36.00
2018-02-07T09:05:44.790Z,34.60
2018-02-07T09:06:44.663Z,35.40
2018-02-07T09:07:44.569Z,36.40
2018-02-07T09:08:44.490Z,35.80
2018-02-07T09:09:44.412Z,34.70
2018-02-07T09:10:44.324Z,35.00
2018-02-07T09:11:44.244Z,33.90
2018-02-07T09:12:44.147Z,34.50
2018-02-07T09:13:44.082Z,34.30
2018-02-07T09:14:44.005Z,34.40
2018-02-07T09:15:43.915Z,35.00
2018-02-07T09:16:43.815Z,33.40
2018-02-07T09:17:43.728Z,34.50
2018-02-07T09:18:43.649Z,33.00
2018-02-07T09:19:43.586Z,34.00
2018-02-07T09:20:43.465Z,33.00
2018-02-07T09:21:43.394Z,34.30
2018-02-07T09:22:43.305Z,34.20
2018-02-07T09:23:43.255Z,34.00
2018-02-07T09:24:43.163Z,32.80
2018-02-07T09:25:43.058Z,34.30
2018-02-07T09:26:42.964Z,33.40
2018-02-07T09:27:42.899Z,33.60
2018-02-07T09:28:42.827Z,33.20
2018-02-07T09:29:42.765Z,33.90
2018-02-07T09:30:42.645Z,33.60
2018-02-07T09:31:42.569Z,34.40
2018-02-07T09:32:42.473Z,34.70
2018-02-07T09:33:42.399Z,35.00
2018-02-07T09:34:42.331Z,34.70
2018-02-07T09:35:42.303Z,34.30
2018-02-07T09:36:42.146Z,34.60
2018-02-07T09:37:42.081Z,34.90
2018-02-07T09:38:41.983Z,35.10
2018-02-07T09:39:41.914Z,33.60
2018-02-07T09:40:41.821Z,34.80
2018-02-07T09:41:41.729Z,34.90
2018-02-07T09:42:41.638Z,34.20
2018-02-07T09:43:41.569Z,33.70
2018-02-07T09:44:41.474Z,35.20
2018-02-07T09:45:41.433Z,34.30
2018-02-07T09:46:41.411Z,34.60
2018-02-07T09:47:41.230Z,33.70
2018-02-07T09:48:41.135Z,35.20
2018-02-07T09:49:41.076Z,34.00
2018-02-07T09:50:40.964Z,34.10
2018-02-07T09:51:40.923Z,33.40
2018-02-07T09:52:40.797Z,34.30
2018-02-07T09:53:40.771Z,33.60
2018-02-07T09:54:40.630Z,33.80
2018-02-07T09:55:40.573Z,31.90
2018-02-07T09:56:40.479Z,32.30
2018-02-07T09:57:40.390Z,31.50
2018-02-07T09:58:40.307Z,31.80
2018-02-07T09:59:40.244Z,31.80
2018-02-07T10:00:40.153Z,30.90
2018-02-07T10:01:40.089Z,31.00
2018-02-07T10:02:39.974Z,31.60
2018-02-07T10:03:39.914Z,29.90
2018-02-07T10:04:39.806Z,30.90
2018-02-07T10:05:39.735Z,30.10
2018-02-07T10:06:39.686Z,30.40
2018-02-07T10:07:39.603Z,31.20
2018-02-07T10:08:39.525Z,30.40
2018-02-07T10:09:39.411Z,31.20
2018-02-07T10:10:39.346Z,30.50
2018-02-07T10:11:39.253Z,30.70
2018-02-07T10:12:39.180Z,31.10
2018-02-07T10:13:39.097Z,29.60
2018-02-07T10:14:39.012Z,30.90
2018-02-07T10:15:38.930Z,30.70
2018-02-07T10:16:38.845Z,29.90
2018-02-07T10:17:38.813Z,31.10
2018-02-07T10:18:38.671Z,30.40
2018-02-07T10:19:38.599Z,31.20
2018-02-07T10:20:38.521Z,31.50
2018-02-07T10:21:38.453Z,30.80
2018-02-07T10:22:38.398Z,28.60
2018-02-07T10:23:38.291Z,30.30
2018-02-07T10:24:38.247Z,31.20
2018-02-07T10:25:38.120Z,30.50
2018-02-07T10:26:38.042Z,30.20
2018-02-07T10:27:37.992Z,30.20
2018-02-07T10:28:37.910Z,30.30
2018-02-07T10:29:37.829Z,30.40
2018-02-07T10:30:37.740Z,31.80
2018-02-07T10:31:37.655Z,30.40
2018-02-07T10:32:37.574Z,31.60
2018-02-07T10:33:37.618Z,30.00
2018-02-07T10:34:37.402Z,30.40
2018-02-07T10:35:37.358Z,30.00
2018-02-07T10:36:37.263Z,31.10
2018-02-07T10:37:37.198Z,30.70
2018-02-07T10:38:37.125Z,30.40
2018-02-07T10:39:37.047Z,30.50
2018-02-07T10:40:36.936Z,31.20
2018-02-07T10:41:36.870Z,30.00
2018-02-07T10:42:36.798Z,30.80
2018-02-07T10:43:36.728Z,31.10
2018-02-07T10:44:36.643Z,30.70
2018-02-07T10:45:36.566Z,31.00
2018-02-07T10:46:36.470Z,29.70
2018-02-07T10:47:36.406Z,31.90
2018-02-07T10:48:36.313Z,30.70
2018-02-07T10:49:36.309Z,31.60
2018-02-07T10:50:36.150Z,31.60
2018-02-07T10:51:36.097Z,30.70
2018-02-07T10:52:36.009Z,30.00
2018-02-07T10:53:35.936Z,31.40
2018-02-07T10:54:35.857Z,31.70
2018-02-07T10:55:35.784Z,31.10
2018-02-07T10:56:35.705Z,31.30
2018-02-07T10:57:35.644Z,32.00
2018-02-07T10:58:35.537Z,30.60
2018-02-07T10:59:35.476Z,31.90
2018-02-07T11:00:35.389Z,31.20
2018-02-07T11:01:35.309Z,29.60
2018-02-07T11:02:35.241Z,30.80
2018-02-07T11:03:35.167Z,31.80
2018-02-07T11:04:35.117Z,30.80
2018-02-07T11:05:35.002Z,31.70
2018-02-07T11:06:34.912Z,32.70
2018-02-07T11:07:34.844Z,31.20
2018-02-07T11:08:34.852Z,30.70
2018-02-07T11:09:34.719Z,31.50
2018-02-07T11:10:34.627Z,31.50
2018-02-07T11:11:34.545Z,31.40
2018-02-07T11:12:34.456Z,31.30
2018-02-07T11:13:34.407Z,30.90
2018-02-07T11:14:34.312Z,31.20
2018-02-07T11:15:34.219Z,31.80
2018-02-07T11:16:34.149Z,32.30
2018-02-07T11:17:34.067Z,31.30
2018-02-07T11:18:34.029Z,32.40
2018-02-07T11:19:33.922Z,32.50
2018-02-07T11:20:33.859Z,32.00
2018-02-07T11:21:33.802Z,31.60
2018-02-07T11:22:33.685Z,33.10
2018-02-07T11:23:33.605Z,32.80
2018-02-07T11:24:33.539Z,31.80
2018-02-07T11:25:33.455Z,32.50
2018-02-07T11:26:33.390Z,40.90
2018-02-07T11:27:33.313Z,34.30
2018-02-07T11:28:33.254Z,34.40
2018-02-07T11:29:33.141Z,32.70
2018-02-07T11:30:33.081Z,33.40
2018-02-07T11:31:32.997Z,32.40
2018-02-07T11:32:32.934Z,32.60
2018-02-07T11:33:32.851Z,34.20
2018-02-07T11:34:32.739Z,31.90
2018-02-07T11:35:32.697Z,33.40
2018-02-07T11:36:32.591Z,33.70
2018-02-07T11:37:32.532Z,33.50
2018-02-07T11:38:32.457Z,33.80
2018-02-07T11:39:32.368Z,33.20
2018-02-07T11:40:32.280Z,32.40
2018-02-07T11:41:32.234Z,33.20
2018-02-07T11:42:32.157Z,33.40
2018-02-07T11:43:32.061Z,31.60
2018-02-07T11:44:32.078Z,32.10
2018-02-07T11:45:31.916Z,33.00
2018-02-07T11:46:31.827Z,32.60
2018-02-07T11:47:31.748Z,31.60
2018-02-07T11:48:31.656Z,31.50
2018-02-07T11:49:31.611Z,31.90
2018-02-07T11:50:31.512Z,32.10
2018-02-07T11:51:31.441Z,32.00
2018-02-07T11:52:31.348Z,32.60
2018-02-07T11:53:31.300Z,32.30
2018-02-07T11:54:31.196Z,33.60
2018-02-07T11:55:31.133Z,32.30
2018-02-07T11:56:31.032Z,32.00
2018-02-07T11:57:30.970Z,32.50
2018-02-07T11:58:30.876Z,32.80
2018-02-07T11:59:30.847Z,32.50
2018-02-07T12:00:30.733Z,32.00
2018-02-07T12:01:30.666Z,33.20
2018-02-07T12:02:30.571Z,32.00
2018-02-07T12:03:30.507Z,33.20
2018-02-07T12:04:30.458Z,31.20
2018-02-07T12:05:30.343Z,31.60
2018-02-07T12:06:30.282Z,32.00
2018-02-07T12:07:30.216Z,31.40
2018-02-07T12:08:30.107Z,31.40
2018-02-07T12:09:30.137Z,32.20
2018-02-07T12:10:29.954Z,31.70
2018-02-07T12:11:29.887Z,31.50
2018-02-07T12:12:29.814Z,31.50
2018-02-07T12:13:29.759Z,31.10
2018-02-07T12:14:29.641Z,32.10
2018-02-07T12:15:29.589Z,31.90
2018-02-07T12:16:29.491Z,31.70
2018-02-07T12:17:29.438Z,32.50
2018-02-07T12:18:29.340Z,31.80
2018-02-07T12:19:29.261Z,32.20
2018-02-07T12:20:29.186Z,31.90
2018-02-07T12:21:29.113Z,33.00
2018-02-07T12:22:29.013Z,33.00
2018-02-07T12:23:28.977Z,33.70
2018-02-07T12:24:28.878Z,33.40
2018-02-07T12:25:28.839Z,33.20
2018-02-07T12:26:28.711Z,33.00
2018-02-07T12:27:28.644Z,33.90
2018-02-07T12:28:28.549Z,34.20
2018-02-07T12:29:28.500Z,34.10
2018-02-07T12:30:28.422Z,32.70
2018-02-07T12:31:28.348Z,32.60
2018-02-07T12:32:28.249Z,33.10
2018-02-07T12:33:28.186Z,33.40
2018-02-07T12:34:28.104Z,34.30
2018-02-07T12:35:28.048Z,33.80
2018-02-07T12:36:27.945Z,33.60
2018-02-07T12:37:27.856Z,34.80
2018-02-07T12:38:27.790Z,34.20
2018-02-07T12:39:27.715Z,34.20
2018-02-07T12:40:27.606Z,34.00
2018-02-07T12:41:27.578Z,35.00
2018-02-07T12:42:27.455Z,34.40
2018-02-07T12:43:27.391Z,34.30
2018-02-07T12:44:27.292Z,35.00
2018-02-07T12:45:27.221Z,35.20
2018-02-07T12:46:27.150Z,34.50
2018-02-07T12:47:27.088Z,33.50
2018-02-07T12:48:26.987Z,34.10
2018-02-07T12:49:26.913Z,33.90
2018-02-07T12:50:26.811Z,33.90
2018-02-07T12:51:26.738Z,33.90
2018-02-07T12:52:26.669Z,34.00
2018-02-07T12:53:26.589Z,34.60
2018-02-07T12:54:26.491Z,34.20